Tropical Cyclones
[Index]
Main Index Home Page Stock Weather Photos Extreme Storms Discussion Storm News and Storm Chasing Reports Tropical Cyclones / Hurricanes / Typhoons Weather Data and Links Wild Fires / Bushfires Weather Observation Techniques Weather Picture Catalogue Tornado Pictures and Reports Stock Video Footage and DVDs for sale
Season 1967-1968 Tropical Cyclone ELSPETH Track Map
Season 1967-1968 Summaries: [BoM-AU] [JTWC-AU] [JTWC-SIO] [JTWC-SPAC] [JTWC-SH]
<<- Previous TC | JTWC 1967-1968 Season | Next TC ->>

click for intensity scale information  Lat/long Grid: Show Hide

 Date Labels: Show Hide

Joint Typhoon Warning Centre Cyclone Data

Name: ELSPETH
Number: 652 / 6807

29 Dec 1967 06:00 UTC to 09 Jan 1968 06:00 UTC

    date/time    lat    long     hPa   cat  kts
1967-12-29 06   10.0    78.0                              
1967-12-29 12   10.4    78.9                              
1967-12-29 18   11.0    79.6                              
1967-12-30 00   11.7    80.2                              
1967-12-30 06   12.4    80.5                              
1967-12-30 12   13.1    80.4                              
1967-12-30 18   13.7    80.0                              
1967-12-31 00   14.3    79.4                              
1967-12-31 06   14.9    78.8                              
1967-12-31 12   15.2    78.1                              
1967-12-31 18   15.5    77.3                              
1968-01-01 00   15.8    76.6                              
1968-01-01 06   16.0    76.0                              
1968-01-01 12   16.2    75.6                              
1968-01-01 18   16.3    75.3                              
1968-01-02 00   16.4    75.0                              
1968-01-02 06   16.5    74.7                              
1968-01-02 12   16.5    74.5                              
1968-01-02 18   16.6    74.4                              
1968-01-03 00   16.6    74.2                              
1968-01-03 06   16.7    74.0                              
1968-01-03 12   16.7    73.7                              
1968-01-03 18   16.7    73.5                              
1968-01-04 00   16.8    73.3                              
1968-01-04 06   16.9    73.2                              
1968-01-04 12   17.0    73.0                              
1968-01-04 18   17.1    72.8                              
1968-01-05 00   17.2    72.7                              
1968-01-05 06   17.3    72.5                              
1968-01-05 12   17.4    72.4                              
1968-01-05 18   17.5    72.2                              
1968-01-06 00   17.6    72.1                              
1968-01-06 06   17.7    72.0                              
1968-01-06 12   18.9    70.4                              
1968-01-06 18   21.0    68.1                              
1968-01-07 00   23.5    66.5                              
1968-01-07 06   25.8    65.5                              
1968-01-07 12   27.3    65.6                              
1968-01-07 18   28.5    66.2                              
1968-01-08 00   29.5    67.0                              
1968-01-08 06   30.6    67.9                              
1968-01-08 12   31.6    69.0                              
1968-01-08 18   32.7    70.3                              
1968-01-09 00   33.8    71.7                              
1968-01-09 06   35.0    73.3                              
Winds are 1-min average.

Tropical cyclone tracks developed by Michael Bath using data from the Joint Typhoon Warning Centre Best Tracks and Google Maps.


[Australian Severe Weather index] [Copyright Notice] [Email Contacts] [Search This Site] [Privacy Policy]
Document: tropical_cyclone_elspeth.htm Updated: 18 September 2016